sensor_id;sensor_type;location;lat;lon;timestamp;P1;durP1;ratioP1;P2;durP2;ratioP2
39890;SDS011;25564;53.312;9.790;2022-11-15T15:04:54;6.50;;;2.50;;
39890;SDS011;25564;53.312;9.790;2022-11-15T15:07:26;5.93;;;2.50;;
39890;SDS011;25564;53.312;9.790;2022-11-15T15:09:57;5.37;;;2.57;;
39890;SDS011;25564;53.312;9.790;2022-11-15T15:12:50;8.53;;;2.60;;
39890;SDS011;25564;53.312;9.790;2022-11-15T15:15:23;4.60;;;2.40;;
39890;SDS011;25564;53.312;9.790;2022-11-15T15:17:56;7.27;;;3.57;;
39890;SDS011;25564;53.312;9.790;2022-11-15T15:20:27;8.30;;;4.40;;
39890;SDS011;25564;53.312;9.790;2022-11-15T15:23:00;8.70;;;3.93;;
39890;SDS011;25564;53.312;9.790;2022-11-15T15:25:33;6.37;;;2.97;;
39890;SDS011;25564;53.312;9.790;2022-11-15T15:28:05;5.57;;;3.00;;
39890;SDS011;25564;53.312;9.790;2022-11-15T15:30:37;5.77;;;2.50;;
39890;SDS011;25564;53.312;9.790;2022-11-15T15:33:09;4.70;;;3.03;;
39890;SDS011;25564;53.312;9.790;2022-11-15T15:35:41;5.33;;;2.77;;
39890;SDS011;25564;53.312;9.790;2022-11-15T15:38:12;4.97;;;2.90;;
39890;SDS011;25564;53.312;9.790;2022-11-15T15:40:44;5.97;;;3.00;;
39890;SDS011;25564;53.312;9.790;2022-11-15T15:43:15;4.50;;;2.73;;
39890;SDS011;25564;53.312;9.790;2022-11-15T15:45:47;6.20;;;3.17;;
39890;SDS011;25564;53.312;9.790;2022-11-15T15:48:18;7.47;;;3.50;;
39890;SDS011;25564;53.312;9.790;2022-11-15T15:50:49;5.73;;;3.03;;
39890;SDS011;25564;53.312;9.790;2022-11-15T15:53:21;6.67;;;3.03;;
39890;SDS011;25564;53.312;9.790;2022-11-15T15:55:52;4.70;;;2.77;;
39890;SDS011;25564;53.312;9.790;2022-11-15T15:58:23;5.10;;;3.00;;
39890;SDS011;25564;53.312;9.790;2022-11-15T16:00:55;7.10;;;2.60;;
39890;SDS011;25564;53.312;9.790;2022-11-15T16:03:26;6.77;;;3.00;;
39890;SDS011;25564;53.312;9.790;2022-11-15T16:05:58;6.40;;;3.13;;
39890;SDS011;25564;53.312;9.790;2022-11-15T16:08:30;5.30;;;2.60;;
39890;SDS011;25564;53.312;9.790;2022-11-15T16:11:21;5.03;;;3.30;;
39890;SDS011;25564;53.312;9.790;2022-11-15T16:13:52;5.30;;;3.20;;
39890;SDS011;25564;53.312;9.790;2022-11-15T16:16:24;5.10;;;2.87;;
39890;SDS011;25564;53.312;9.790;2022-11-15T16:18:55;4.30;;;2.70;;
39890;SDS011;25564;53.312;9.790;2022-11-15T16:21:27;5.87;;;3.23;;
39890;SDS011;25564;53.312;9.790;2022-11-15T16:23:59;7.17;;;3.70;;
39890;SDS011;25564;53.312;9.790;2022-11-15T16:26:30;6.47;;;3.23;;
39890;SDS011;25564;53.312;9.790;2022-11-15T16:29:04;6.37;;;3.10;;
39890;SDS011;25564;53.312;9.790;2022-11-15T16:31:35;8.27;;;3.30;;
39890;SDS011;25564;53.312;9.790;2022-11-15T16:34:07;6.57;;;3.13;;
39890;SDS011;25564;53.312;9.790;2022-11-15T16:36:39;5.17;;;3.53;;
39890;SDS011;25564;53.312;9.790;2022-11-15T16:39:11;7.47;;;3.40;;
39890;SDS011;25564;53.312;9.790;2022-11-15T16:41:44;5.77;;;3.33;;
39890;SDS011;25564;53.312;9.790;2022-11-15T16:44:17;6.43;;;3.30;;
39890;SDS011;25564;53.312;9.790;2022-11-15T16:46:49;8.20;;;3.70;;
39890;SDS011;25564;53.312;9.790;2022-11-15T16:49:24;5.35;;;3.13;;
39890;SDS011;25564;53.312;9.790;2022-11-15T16:51:55;6.50;;;3.17;;
39890;SDS011;25564;53.312;9.790;2022-11-15T16:54:27;7.00;;;3.40;;
39890;SDS011;25564;53.312;9.790;2022-11-15T16:56:58;4.80;;;3.17;;
39890;SDS011;25564;53.312;9.790;2022-11-15T16:59:30;4.63;;;3.13;;
39890;SDS011;25564;53.312;9.790;2022-11-15T17:02:10;9.40;;;3.43;;
39890;SDS011;25564;53.312;9.790;2022-11-15T17:04:43;6.03;;;2.90;;
39890;SDS011;25564;53.312;9.790;2022-11-15T17:07:15;6.53;;;3.80;;
39890;SDS011;25564;53.312;9.790;2022-11-15T17:09:47;5.77;;;3.40;;
39890;SDS011;25564;53.312;9.790;2022-11-15T17:12:18;8.63;;;3.37;;
39890;SDS011;25564;53.312;9.790;2022-11-15T17:14:51;6.63;;;3.83;;
39890;SDS011;25564;53.312;9.790;2022-11-15T17:17:23;5.23;;;3.57;;
39890;SDS011;25564;53.312;9.790;2022-11-15T17:19:56;8.53;;;4.40;;
39890;SDS011;25564;53.312;9.790;2022-11-15T17:22:28;5.43;;;3.33;;
39890;SDS011;25564;53.312;9.790;2022-11-15T17:24:59;7.03;;;3.33;;
39890;SDS011;25564;53.312;9.790;2022-11-15T17:27:30;8.30;;;3.70;;
39890;SDS011;25564;53.312;9.790;2022-11-15T17:30:02;7.97;;;3.70;;
39890;SDS011;25564;53.312;9.790;2022-11-15T17:32:35;9.17;;;4.20;;
39890;SDS011;25564;53.312;9.790;2022-11-15T17:35:07;8.13;;;3.73;;
39890;SDS011;25564;53.312;9.790;2022-11-15T17:37:45;5.60;;;3.67;;
39890;SDS011;25564;53.312;9.790;2022-11-15T17:40:19;7.70;;;3.97;;
39890;SDS011;25564;53.312;9.790;2022-11-15T17:42:50;11.17;;;3.83;;
39890;SDS011;25564;53.312;9.790;2022-11-15T17:45:22;6.33;;;3.47;;
39890;SDS011;25564;53.312;9.790;2022-11-15T17:47:53;8.37;;;3.90;;
39890;SDS011;25564;53.312;9.790;2022-11-15T17:50:24;8.00;;;4.97;;
39890;SDS011;25564;53.312;9.790;2022-11-15T17:52:57;8.23;;;4.70;;
39890;SDS011;25564;53.312;9.790;2022-11-15T17:55:29;8.20;;;4.33;;
39890;SDS011;25564;53.312;9.790;2022-11-15T17:58:02;7.87;;;4.73;;
39890;SDS011;25564;53.312;9.790;2022-11-15T18:00:34;8.50;;;4.73;;
39890;SDS011;25564;53.312;9.790;2022-11-15T18:03:08;11.00;;;4.50;;
39890;SDS011;25564;53.312;9.790;2022-11-15T18:05:39;6.77;;;4.60;;
39890;SDS011;25564;53.312;9.790;2022-11-15T18:08:13;8.10;;;4.50;;
39890;SDS011;25564;53.312;9.790;2022-11-15T18:10:47;7.63;;;4.60;;
39890;SDS011;25564;53.312;9.790;2022-11-15T18:13:20;10.63;;;4.40;;
39890;SDS011;25564;53.312;9.790;2022-11-15T18:15:54;8.87;;;4.50;;
39890;SDS011;25564;53.312;9.790;2022-11-15T18:18:26;7.70;;;4.63;;
39890;SDS011;25564;53.312;9.790;2022-11-15T18:20:59;8.83;;;5.43;;
39890;SDS011;25564;53.312;9.790;2022-11-15T18:23:34;8.57;;;4.13;;
39890;SDS011;25564;53.312;9.790;2022-11-15T18:26:06;10.53;;;5.17;;
39890;SDS011;25564;53.312;9.790;2022-11-15T18:28:40;8.60;;;5.03;;
39890;SDS011;25564;53.312;9.790;2022-11-15T18:33:57;11.37;;;5.77;;
39890;SDS011;25564;53.312;9.790;2022-11-15T18:36:29;7.10;;;4.30;;
39890;SDS011;25564;53.312;9.790;2022-11-15T18:39:01;10.23;;;5.30;;
39890;SDS011;25564;53.312;9.790;2022-11-15T18:41:34;9.70;;;5.23;;
39890;SDS011;25564;53.312;9.790;2022-11-15T18:44:06;8.63;;;5.10;;
39890;SDS011;25564;53.312;9.790;2022-11-15T18:46:38;8.20;;;4.97;;
39890;SDS011;25564;53.312;9.790;2022-11-15T18:49:10;9.77;;;4.27;;
39890;SDS011;25564;53.312;9.790;2022-11-15T18:51:43;7.97;;;4.77;;
39890;SDS011;25564;53.312;9.790;2022-11-15T18:54:15;8.80;;;4.53;;
39890;SDS011;25564;53.312;9.790;2022-11-15T18:56:47;8.73;;;4.30;;
39890;SDS011;25564;53.312;9.790;2022-11-15T18:59:18;8.60;;;4.80;;
39890;SDS011;25564;53.312;9.790;2022-11-15T19:01:50;9.90;;;4.97;;
39890;SDS011;25564;53.312;9.790;2022-11-15T19:04:22;10.57;;;4.43;;
39890;SDS011;25564;53.312;9.790;2022-11-15T19:06:54;7.20;;;4.37;;
39890;SDS011;25564;53.312;9.790;2022-11-15T19:09:25;9.03;;;4.77;;
39890;SDS011;25564;53.312;9.790;2022-11-15T19:12:02;10.63;;;4.40;;
39890;SDS011;25564;53.312;9.790;2022-11-15T19:14:34;8.93;;;5.13;;
39890;SDS011;25564;53.312;9.790;2022-11-15T19:17:06;10.60;;;5.20;;
39890;SDS011;25564;53.312;9.790;2022-11-15T19:19:37;7.27;;;4.77;;
39890;SDS011;25564;53.312;9.790;2022-11-15T19:22:08;10.93;;;4.90;;
39890;SDS011;25564;53.312;9.790;2022-11-15T19:24:40;7.57;;;4.40;;
39890;SDS011;25564;53.312;9.790;2022-11-15T19:27:11;11.37;;;5.53;;
39890;SDS011;25564;53.312;9.790;2022-11-15T19:29:43;8.50;;;4.97;;
39890;SDS011;25564;53.312;9.790;2022-11-15T19:32:14;10.47;;;5.30;;
39890;SDS011;25564;53.312;9.790;2022-11-15T19:36:27;8.67;;;5.57;;
39890;SDS011;25564;53.312;9.790;2022-11-15T19:39:03;8.73;;;5.60;;
39890;SDS011;25564;53.312;9.790;2022-11-15T19:41:39;9.18;;;5.60;;
39890;SDS011;25564;53.312;9.790;2022-11-15T19:44:12;9.13;;;5.07;;
39890;SDS011;25564;53.312;9.790;2022-11-15T19:46:44;8.90;;;5.60;;
39890;SDS011;25564;53.312;9.790;2022-11-15T19:49:15;8.17;;;5.00;;
39890;SDS011;25564;53.312;9.790;2022-11-15T19:51:46;10.97;;;5.87;;
39890;SDS011;25564;53.312;9.790;2022-11-15T19:54:18;10.40;;;5.73;;
39890;SDS011;25564;53.312;9.790;2022-11-15T19:56:49;9.33;;;6.03;;
39890;SDS011;25564;53.312;9.790;2022-11-15T19:59:21;9.03;;;5.63;;
39890;SDS011;25564;53.312;9.790;2022-11-15T20:01:53;10.07;;;5.80;;
39890;SDS011;25564;53.312;9.790;2022-11-15T20:04:24;11.07;;;5.77;;
39890;SDS011;25564;53.312;9.790;2022-11-15T20:06:55;13.47;;;5.80;;
39890;SDS011;25564;53.312;9.790;2022-11-15T20:09:29;10.43;;;5.80;;
39890;SDS011;25564;53.312;9.790;2022-11-15T20:12:01;13.33;;;6.07;;
39890;SDS011;25564;53.312;9.790;2022-11-15T20:14:32;10.30;;;5.50;;
39890;SDS011;25564;53.312;9.790;2022-11-15T20:17:03;11.97;;;5.83;;
39890;SDS011;25564;53.312;9.790;2022-11-15T20:19:37;11.73;;;6.43;;
39890;SDS011;25564;53.312;9.790;2022-11-15T20:22:08;12.57;;;6.07;;
39890;SDS011;25564;53.312;9.790;2022-11-15T20:24:40;10.83;;;5.07;;
39890;SDS011;25564;53.312;9.790;2022-11-15T20:27:11;13.23;;;5.50;;
39890;SDS011;25564;53.312;9.790;2022-11-15T20:29:43;12.40;;;5.97;;
39890;SDS011;25564;53.312;9.790;2022-11-15T20:32:15;8.10;;;4.63;;
39890;SDS011;25564;53.312;9.790;2022-11-15T20:34:46;10.07;;;5.70;;
39890;SDS011;25564;53.312;9.790;2022-11-15T20:37:24;10.67;;;5.27;;
39890;SDS011;25564;53.312;9.790;2022-11-15T20:39:55;12.93;;;6.10;;
39890;SDS011;25564;53.312;9.790;2022-11-15T20:42:27;6.90;;;4.90;;
39890;SDS011;25564;53.312;9.790;2022-11-15T20:44:59;9.17;;;4.63;;
39890;SDS011;25564;53.312;9.790;2022-11-15T20:47:30;10.57;;;4.80;;
39890;SDS011;25564;53.312;9.790;2022-11-15T20:50:02;10.20;;;4.93;;
39890;SDS011;25564;53.312;9.790;2022-11-15T20:52:54;7.57;;;4.70;;
39890;SDS011;25564;53.312;9.790;2022-11-15T20:55:28;11.17;;;5.73;;
39890;SDS011;25564;53.312;9.790;2022-11-15T20:58:00;12.23;;;5.80;;
39890;SDS011;25564;53.312;9.790;2022-11-15T21:00:31;8.07;;;5.03;;
39890;SDS011;25564;53.312;9.790;2022-11-15T21:03:03;11.03;;;5.10;;
39890;SDS011;25564;53.312;9.790;2022-11-15T21:05:38;8.10;;;4.63;;
39890;SDS011;25564;53.312;9.790;2022-11-15T21:08:14;8.07;;;5.22;;
39890;SDS011;25564;53.312;9.790;2022-11-15T21:10:48;8.83;;;4.87;;
39890;SDS011;25564;53.312;9.790;2022-11-15T21:13:39;9.33;;;5.33;;
39890;SDS011;25564;53.312;9.790;2022-11-15T21:16:10;9.70;;;4.83;;
39890;SDS011;25564;53.312;9.790;2022-11-15T21:18:41;9.00;;;4.93;;
39890;SDS011;25564;53.312;9.790;2022-11-15T21:21:12;8.53;;;5.27;;
39890;SDS011;25564;53.312;9.790;2022-11-15T21:23:45;8.30;;;4.97;;
39890;SDS011;25564;53.312;9.790;2022-11-15T21:26:16;9.03;;;5.47;;
39890;SDS011;25564;53.312;9.790;2022-11-15T21:28:47;11.53;;;4.87;;
39890;SDS011;25564;53.312;9.790;2022-11-15T21:31:19;9.63;;;5.27;;
39890;SDS011;25564;53.312;9.790;2022-11-15T21:33:50;8.23;;;5.37;;
39890;SDS011;25564;53.312;9.790;2022-11-15T21:36:21;11.73;;;5.63;;
39890;SDS011;25564;53.312;9.790;2022-11-15T21:38:55;13.93;;;6.07;;
39890;SDS011;25564;53.312;9.790;2022-11-15T21:41:26;13.40;;;5.90;;
39890;SDS011;25564;53.312;9.790;2022-11-15T21:43:58;9.53;;;5.13;;
39890;SDS011;25564;53.312;9.790;2022-11-15T21:46:30;12.03;;;6.37;;
39890;SDS011;25564;53.312;9.790;2022-11-15T21:49:03;9.40;;;5.20;;
39890;SDS011;25564;53.312;9.790;2022-11-15T21:51:35;9.53;;;5.60;;
39890;SDS011;25564;53.312;9.790;2022-11-15T21:54:07;10.53;;;5.57;;
39890;SDS011;25564;53.312;9.790;2022-11-15T21:56:38;7.83;;;4.70;;
39890;SDS011;25564;53.312;9.790;2022-11-15T21:59:11;11.70;;;5.33;;
39890;SDS011;25564;53.312;9.790;2022-11-15T22:01:43;10.87;;;4.90;;
39890;SDS011;25564;53.312;9.790;2022-11-15T22:04:32;8.67;;;4.87;;
39890;SDS011;25564;53.312;9.790;2022-11-15T22:07:04;12.63;;;5.77;;
39890;SDS011;25564;53.312;9.790;2022-11-15T22:09:35;10.03;;;5.20;;
39890;SDS011;25564;53.312;9.790;2022-11-15T22:12:06;9.90;;;5.63;;
39890;SDS011;25564;53.312;9.790;2022-11-15T22:14:38;11.57;;;5.83;;
39890;SDS011;25564;53.312;9.790;2022-11-15T22:17:09;11.00;;;5.80;;
39890;SDS011;25564;53.312;9.790;2022-11-15T22:19:41;10.07;;;5.40;;
39890;SDS011;25564;53.312;9.790;2022-11-15T22:22:23;9.60;;;5.57;;
39890;SDS011;25564;53.312;9.790;2022-11-15T22:24:54;8.57;;;5.70;;
39890;SDS011;25564;53.312;9.790;2022-11-15T22:27:26;9.50;;;5.67;;
39890;SDS011;25564;53.312;9.790;2022-11-15T22:29:58;11.87;;;5.37;;
39890;SDS011;25564;53.312;9.790;2022-11-15T22:32:29;9.37;;;5.90;;
39890;SDS011;25564;53.312;9.790;2022-11-15T22:35:00;9.37;;;5.30;;
39890;SDS011;25564;53.312;9.790;2022-11-15T22:37:31;11.03;;;5.57;;
39890;SDS011;25564;53.312;9.790;2022-11-15T22:40:03;8.27;;;5.03;;
39890;SDS011;25564;53.312;9.790;2022-11-15T22:42:35;11.83;;;5.60;;
39890;SDS011;25564;53.312;9.790;2022-11-15T22:45:06;8.70;;;5.27;;
39890;SDS011;25564;53.312;9.790;2022-11-15T22:47:38;9.90;;;5.13;;
39890;SDS011;25564;53.312;9.790;2022-11-15T22:50:09;9.73;;;5.70;;
39890;SDS011;25564;53.312;9.790;2022-11-15T22:52:40;7.90;;;4.90;;
39890;SDS011;25564;53.312;9.790;2022-11-15T22:55:12;9.43;;;5.67;;
39890;SDS011;25564;53.312;9.790;2022-11-15T22:57:43;9.07;;;5.60;;
39890;SDS011;25564;53.312;9.790;2022-11-15T23:00:14;10.90;;;5.60;;
39890;SDS011;25564;53.312;9.790;2022-11-15T23:02:46;11.50;;;6.13;;
39890;SDS011;25564;53.312;9.790;2022-11-15T23:05:23;11.30;;;6.10;;
39890;SDS011;25564;53.312;9.790;2022-11-15T23:07:54;11.47;;;6.90;;
39890;SDS011;25564;53.312;9.790;2022-11-15T23:10:26;11.37;;;5.90;;
39890;SDS011;25564;53.312;9.790;2022-11-15T23:13:16;12.57;;;6.43;;
39890;SDS011;25564;53.312;9.790;2022-11-15T23:15:48;12.03;;;7.20;;
39890;SDS011;25564;53.312;9.790;2022-11-15T23:18:39;9.03;;;5.87;;
39890;SDS011;25564;53.312;9.790;2022-11-15T23:21:14;12.47;;;7.13;;
39890;SDS011;25564;53.312;9.790;2022-11-15T23:24:10;11.17;;;6.10;;
39890;SDS011;25564;53.312;9.790;2022-11-15T23:26:43;10.15;;;5.93;;
39890;SDS011;25564;53.312;9.790;2022-11-15T23:29:16;14.73;;;7.13;;
39890;SDS011;25564;53.312;9.790;2022-11-15T23:31:48;11.87;;;6.33;;
39890;SDS011;25564;53.312;9.790;2022-11-15T23:34:41;11.40;;;6.50;;
39890;SDS011;25564;53.312;9.790;2022-11-15T23:37:14;12.97;;;6.47;;
39890;SDS011;25564;53.312;9.790;2022-11-15T23:39:45;11.07;;;6.37;;
39890;SDS011;25564;53.312;9.790;2022-11-15T23:42:16;10.47;;;6.43;;
39890;SDS011;25564;53.312;9.790;2022-11-15T23:44:50;10.23;;;6.43;;
39890;SDS011;25564;53.312;9.790;2022-11-15T23:47:21;11.33;;;6.50;;
39890;SDS011;25564;53.312;9.790;2022-11-15T23:49:53;11.10;;;6.80;;
39890;SDS011;25564;53.312;9.790;2022-11-15T23:52:24;14.03;;;7.53;;
39890;SDS011;25564;53.312;9.790;2022-11-15T23:54:55;12.37;;;6.67;;
39890;SDS011;25564;53.312;9.790;2022-11-15T23:57:26;11.80;;;6.87;;
39890;SDS011;25564;53.312;9.790;2022-11-15T23:59:58;12.63;;;7.10;;
